sensor_id;sensor_type;location;lat;lon;timestamp;pressure;altitude;pressure_sealevel;temperature;humidity
61554;BME280;47425;51.976;5.326;2022-09-27T09:02:36;99779.94;;;17.72;57.41
61554;BME280;47425;51.976;5.326;2022-09-27T09:05:20;99783.72;;;18.21;56.57
61554;BME280;47425;51.976;5.326;2022-09-27T09:10:52;99794.81;;;19.15;54.14
61554;BME280;47425;51.976;5.326;2022-09-27T09:30:18;99792.06;;;20.35;50.81
61554;BME280;47425;51.976;5.326;2022-09-27T09:35:35;99796.53;;;20.45;50.19
61554;BME280;47425;51.976;5.326;2022-09-27T09:38:12;99785.66;;;20.49;50.05
61554;BME280;47425;51.976;5.326;2022-09-27T09:43:34;99795.56;;;20.58;49.99
61554;BME280;47425;51.976;5.326;2022-09-27T09:46:12;99790.72;;;20.63;49.62
61554;BME280;47425;51.976;5.326;2022-09-27T09:48:43;99795.66;;;20.68;49.69
61554;BME280;47425;51.976;5.326;2022-09-27T09:51:16;99784.31;;;20.66;49.45
61554;BME280;47425;51.976;5.326;2022-09-27T09:53:56;99790.34;;;20.68;49.85
61554;BME280;47425;51.976;5.326;2022-09-27T09:56:45;99793.88;;;20.68;49.52
61554;BME280;47425;51.976;5.326;2022-09-27T09:59:28;99803.47;;;20.71;49.65
61554;BME280;47425;51.976;5.326;2022-09-27T10:05:03;99804.66;;;20.78;49.47
61554;BME280;47425;51.976;5.326;2022-09-27T10:07:30;99804.53;;;20.79;49.46
61554;BME280;47425;51.976;5.326;2022-09-27T10:10:00;99814.22;;;20.81;49.56
61554;BME280;47425;51.976;5.326;2022-09-27T10:12:52;99806.94;;;20.83;49.03
61554;BME280;47425;51.976;5.326;2022-09-27T10:15:29;99805.25;;;20.82;49.18
61554;BME280;47425;51.976;5.326;2022-09-27T10:18:16;99805.84;;;20.85;49.29
61554;BME280;47425;51.976;5.326;2022-09-27T10:20:48;99808.63;;;20.84;49.16
61554;BME280;47425;51.976;5.326;2022-09-27T10:23:18;99811.03;;;20.87;48.94
61554;BME280;47425;51.976;5.326;2022-09-27T10:26:11;99809.13;;;20.89;48.74
61554;BME280;47425;51.976;5.326;2022-09-27T10:28:43;99810.81;;;20.90;48.90
61554;BME280;47425;51.976;5.326;2022-09-27T10:31:17;99800.28;;;20.88;49.01
61554;BME280;47425;51.976;5.326;2022-09-27T10:34:04;99800.88;;;20.92;48.33
61554;BME280;47425;51.976;5.326;2022-09-27T10:36:36;99801.88;;;20.91;49.18
61554;BME280;47425;51.976;5.326;2022-09-27T10:39:05;99806.06;;;20.93;48.65
61554;BME280;47425;51.976;5.326;2022-09-27T10:41:40;99812.97;;;20.96;48.63
61554;BME280;47425;51.976;5.326;2022-09-27T10:46:43;99808.47;;;21.08;48.69
61554;BME280;47425;51.976;5.326;2022-09-27T10:49:41;99808.38;;;20.98;48.66
61554;BME280;47425;51.976;5.326;2022-09-27T10:52:33;99795.19;;;20.97;48.69
61554;BME280;47425;51.976;5.326;2022-09-27T10:55:20;99812.13;;;20.95;48.94
61554;BME280;47425;51.976;5.326;2022-09-27T10:57:53;99809.34;;;20.97;48.75
61554;BME280;47425;51.976;5.326;2022-09-27T11:00:24;99808.50;;;20.97;48.80
61554;BME280;47425;51.976;5.326;2022-09-27T11:02:55;99814.78;;;20.95;48.64
61554;BME280;47425;51.976;5.326;2022-09-27T11:07:55;99824.59;;;20.95;48.33
61554;BME280;47425;51.976;5.326;2022-09-27T11:10:32;99820.84;;;20.98;48.96
61554;BME280;47425;51.976;5.326;2022-09-27T11:13:14;99812.13;;;20.95;48.74
61554;BME280;47425;51.976;5.326;2022-09-27T11:18:21;99818.19;;;20.98;48.81
61554;BME280;47425;51.976;5.326;2022-09-27T11:21:21;99813.81;;;20.97;48.50
61554;BME280;47425;51.976;5.326;2022-09-27T11:33:03;99806.94;;;20.94;48.50
61554;BME280;47425;51.976;5.326;2022-09-27T11:36:00;99803.53;;;20.92;48.45
61554;BME280;47425;51.976;5.326;2022-09-27T11:47:05;99796.78;;;20.88;48.20
61554;BME280;47425;51.976;5.326;2022-09-27T11:54:54;99798.47;;;20.89;48.40
61554;BME280;47425;51.976;5.326;2022-09-27T11:57:33;99797.63;;;20.88;48.04
61554;BME280;47425;51.976;5.326;2022-09-27T12:00:16;99782.75;;;20.86;48.37
61554;BME280;47425;51.976;5.326;2022-09-27T12:08:14;99787.56;;;20.92;47.99
61554;BME280;47425;51.976;5.326;2022-09-27T12:10:48;99789.53;;;20.90;48.39
61554;BME280;47425;51.976;5.326;2022-09-27T12:13:33;99789.53;;;20.90;48.20
61554;BME280;47425;51.976;5.326;2022-09-27T12:16:02;99778.00;;;20.89;48.00
61554;BME280;47425;51.976;5.326;2022-09-27T12:18:37;99783.47;;;20.88;48.04
61554;BME280;47425;51.976;5.326;2022-09-27T12:21:17;99786.00;;;20.89;48.33
61554;BME280;47425;51.976;5.326;2022-09-27T12:23:50;99783.47;;;20.88;48.24
61554;BME280;47425;51.976;5.326;2022-09-27T12:26:36;99782.50;;;20.89;48.26
61554;BME280;47425;51.976;5.326;2022-09-27T12:29:33;99789.53;;;20.90;47.97
61554;BME280;47425;51.976;5.326;2022-09-27T12:32:14;99785.41;;;20.86;48.30
61554;BME280;47425;51.976;5.326;2022-09-27T12:35:06;99786.13;;;20.88;48.17
61554;BME280;47425;51.976;5.326;2022-09-27T12:37:41;99797.50;;;20.90;48.23
61554;BME280;47425;51.976;5.326;2022-09-27T12:40:20;99799.44;;;20.88;48.27
61554;BME280;47425;51.976;5.326;2022-09-27T12:42:53;99793.97;;;20.89;48.09
61554;BME280;47425;51.976;5.326;2022-09-27T12:45:58;99791.31;;;20.89;48.00
61554;BME280;47425;51.976;5.326;2022-09-27T12:51:40;99783.72;;;20.85;48.38
61554;BME280;47425;51.976;5.326;2022-09-27T12:54:43;99783.47;;;20.88;48.02
61554;BME280;47425;51.976;5.326;2022-09-27T12:57:24;99786.00;;;20.89;48.08
61554;BME280;47425;51.976;5.326;2022-09-27T13:05:55;99775.34;;;20.89;48.42
61554;BME280;47425;51.976;5.326;2022-09-27T13:11:24;99760.47;;;20.87;48.50
61554;BME280;47425;51.976;5.326;2022-09-27T13:13:54;99760.38;;;20.88;47.87
61554;BME280;47425;51.976;5.326;2022-09-27T13:16:21;99761.81;;;20.92;48.25
61554;BME280;47425;51.976;5.326;2022-09-27T13:18:56;99761.94;;;20.91;48.08
61554;BME280;47425;51.976;5.326;2022-09-27T13:42:05;99730.31;;;21.09;48.01
61554;BME280;47425;51.976;5.326;2022-09-27T13:44:37;99738.75;;;21.14;47.42
61554;BME280;47425;51.976;5.326;2022-09-27T13:47:31;99741.03;;;21.19;47.79
61554;BME280;47425;51.976;5.326;2022-09-27T13:53:28;99729.28;;;21.21;47.38
61554;BME280;47425;51.976;5.326;2022-09-27T13:55:56;99730.16;;;21.22;46.86
61554;BME280;47425;51.976;5.326;2022-09-27T13:58:50;99729.69;;;21.17;47.32
61554;BME280;47425;51.976;5.326;2022-09-27T14:01:48;99715.06;;;21.11;47.54
61554;BME280;47425;51.976;5.326;2022-09-27T14:04:40;99711.66;;;21.09;47.04
61554;BME280;47425;51.976;5.326;2022-09-27T14:07:12;99726.91;;;21.07;47.24
61554;BME280;47425;51.976;5.326;2022-09-27T14:09:58;99721.72;;;21.05;47.35
61554;BME280;47425;51.976;5.326;2022-09-27T14:12:33;99711.59;;;20.99;47.42
61554;BME280;47425;51.976;5.326;2022-09-27T14:15:02;99711.59;;;20.99;47.30
61554;BME280;47425;51.976;5.326;2022-09-27T14:17:30;99714.97;;;21.01;47.38
61554;BME280;47425;51.976;5.326;2022-09-27T14:19:57;99711.47;;;21.01;47.31
61554;BME280;47425;51.976;5.326;2022-09-27T14:22:23;99719.56;;;20.99;46.91
61554;BME280;47425;51.976;5.326;2022-09-27T14:24:57;99710.16;;;20.95;47.21
61554;BME280;47425;51.976;5.326;2022-09-27T14:27:36;99714.88;;;20.91;46.95
61554;BME280;47425;51.976;5.326;2022-09-27T14:30:24;99709.81;;;20.88;47.37
61554;BME280;47425;51.976;5.326;2022-09-27T14:33:30;99702.06;;;20.85;47.24
61554;BME280;47425;51.976;5.326;2022-09-27T14:36:01;99692.28;;;20.86;47.14
61554;BME280;47425;51.976;5.326;2022-09-27T14:38:47;99679.09;;;20.84;46.92
61554;BME280;47425;51.976;5.326;2022-09-27T14:41:22;99679.34;;;20.81;47.01
61554;BME280;47425;51.976;5.326;2022-09-27T14:43:48;99680.31;;;20.80;47.07
61554;BME280;47425;51.976;5.326;2022-09-27T14:46:34;99681.03;;;20.82;47.46
61554;BME280;47425;51.976;5.326;2022-09-27T14:49:20;99683.19;;;20.88;47.15
61554;BME280;47425;51.976;5.326;2022-09-27T14:51:54;99686.91;;;20.97;46.90
61554;BME280;47425;51.976;5.326;2022-09-27T14:54:23;99686.53;;;21.02;47.13
61554;BME280;47425;51.976;5.326;2022-09-27T14:56:52;99684.31;;;21.07;47.14
61554;BME280;47425;51.976;5.326;2022-09-27T14:59:28;99693.63;;;21.12;46.89
61554;BME280;47425;51.976;5.326;2022-09-27T15:02:01;99687.66;;;21.20;46.80
61554;BME280;47425;51.976;5.326;2022-09-27T15:04:31;99687.41;;;21.23;46.58
61554;BME280;47425;51.976;5.326;2022-09-27T15:06:59;99690.63;;;21.27;46.95
61554;BME280;47425;51.976;5.326;2022-09-27T15:09:26;99690.00;;;21.35;46.68
61554;BME280;47425;51.976;5.326;2022-09-27T15:11:55;99689.63;;;21.39;46.72
61554;BME280;47425;51.976;5.326;2022-09-27T15:14:41;99689.81;;;21.48;46.54
61554;BME280;47425;51.976;5.326;2022-09-27T15:17:16;99685.81;;;21.53;46.53
61554;BME280;47425;51.976;5.326;2022-09-27T15:19:55;99689.91;;;21.57;46.34
61554;BME280;47425;51.976;5.326;2022-09-27T15:22:43;99693.88;;;21.63;46.46
61554;BME280;47425;51.976;5.326;2022-09-27T15:25:21;99692.91;;;21.64;46.49
61554;BME280;47425;51.976;5.326;2022-09-27T15:27:53;99687.28;;;21.67;46.38
61554;BME280;47425;51.976;5.326;2022-09-27T15:33:02;99689.00;;;21.68;46.30
61554;BME280;47425;51.976;5.326;2022-09-27T15:35:30;99682.69;;;21.69;46.06
61554;BME280;47425;51.976;5.326;2022-09-27T15:38:24;99679.91;;;21.71;46.18
61554;BME280;47425;51.976;5.326;2022-09-27T15:43:42;99675.16;;;21.74;46.01
61554;BME280;47425;51.976;5.326;2022-09-27T15:51:45;99665.06;;;21.78;45.98
61554;BME280;47425;51.976;5.326;2022-09-27T15:54:10;99668.59;;;21.78;45.86
61554;BME280;47425;51.976;5.326;2022-09-27T15:56:40;99664.34;;;21.76;45.88
61554;BME280;47425;51.976;5.326;2022-09-27T15:59:06;99665.44;;;21.94;45.74
61554;BME280;47425;51.976;5.326;2022-09-27T16:01:36;99668.75;;;21.87;45.54
61554;BME280;47425;51.976;5.326;2022-09-27T16:04:07;99671.69;;;21.84;45.69
61554;BME280;47425;51.976;5.326;2022-09-27T16:06:34;99663.44;;;21.87;45.61
61554;BME280;47425;51.976;5.326;2022-09-27T16:09:00;99661.47;;;21.89;45.94
61554;BME280;47425;51.976;5.326;2022-09-27T16:11:25;99658.78;;;21.89;45.31
61554;BME280;47425;51.976;5.326;2022-09-27T16:13:51;99650.09;;;21.87;45.78
61554;BME280;47425;51.976;5.326;2022-09-27T16:16:20;99663.16;;;21.90;45.61
61554;BME280;47425;51.976;5.326;2022-09-27T16:18:46;99657.81;;;21.90;46.01
61554;BME280;47425;51.976;5.326;2022-09-27T16:21:12;99647.59;;;21.95;45.67
61554;BME280;47425;51.976;5.326;2022-09-27T16:23:38;99635.97;;;21.96;46.05
61554;BME280;47425;51.976;5.326;2022-09-27T16:26:04;99640.06;;;22.00;46.12
61554;BME280;47425;51.976;5.326;2022-09-27T16:28:33;99645.09;;;22.03;46.51
61554;BME280;47425;51.976;5.326;2022-09-27T16:31:04;99649.47;;;22.04;46.12
61554;BME280;47425;51.976;5.326;2022-09-27T16:33:50;99650.19;;;22.06;46.16
61554;BME280;47425;51.976;5.326;2022-09-27T16:36:15;99643.84;;;22.07;46.42
61554;BME280;47425;51.976;5.326;2022-09-27T16:38:48;99642.06;;;22.08;46.59
61554;BME280;47425;51.976;5.326;2022-09-27T16:41:16;99641.06;;;22.09;46.54
61554;BME280;47425;51.976;5.326;2022-09-27T16:44:06;99638.53;;;22.07;46.92
61554;BME280;47425;51.976;5.326;2022-09-27T16:46:32;99641.63;;;22.12;47.42
61554;BME280;47425;51.976;5.326;2022-09-27T16:48:59;99639.81;;;22.13;47.29
61554;BME280;47425;51.976;5.326;2022-09-27T16:51:26;99646.97;;;22.12;47.12
61554;BME280;47425;51.976;5.326;2022-09-27T16:54:11;99646.81;;;22.14;47.21
61554;BME280;47425;51.976;5.326;2022-09-27T16:56:39;99642.47;;;22.13;47.31
61554;BME280;47425;51.976;5.326;2022-09-27T16:59:04;99639.69;;;22.15;47.07
61554;BME280;47425;51.976;5.326;2022-09-27T17:01:33;99637.03;;;22.15;47.27
61554;BME280;47425;51.976;5.326;2022-09-27T17:03:58;99639.69;;;22.15;47.17
61554;BME280;47425;51.976;5.326;2022-09-27T17:06:25;99640.53;;;22.15;47.02
61554;BME280;47425;51.976;5.326;2022-09-27T17:09:12;99641.34;;;22.16;47.16
61554;BME280;47425;51.976;5.326;2022-09-27T17:11:39;99639.69;;;22.15;47.19
61554;BME280;47425;51.976;5.326;2022-09-27T17:14:04;99636.31;;;22.12;47.05
61554;BME280;47425;51.976;5.326;2022-09-27T17:16:29;99636.16;;;22.14;46.99
61554;BME280;47425;51.976;5.326;2022-09-27T17:18:56;99627.34;;;22.13;47.16
61554;BME280;47425;51.976;5.326;2022-09-27T17:21:21;99629.13;;;22.13;47.15
61554;BME280;47425;51.976;5.326;2022-09-27T17:23:47;99634.59;;;22.11;47.25
61554;BME280;47425;51.976;5.326;2022-09-27T17:29:01;99632.81;;;22.12;47.22
61554;BME280;47425;51.976;5.326;2022-09-27T17:31:27;99633.78;;;22.11;46.89
61554;BME280;47425;51.976;5.326;2022-09-27T17:33:55;99630.38;;;22.09;46.79
61554;BME280;47425;51.976;5.326;2022-09-27T17:36:23;99633.91;;;22.09;46.87
61554;BME280;47425;51.976;5.326;2022-09-27T17:38:51;99636.44;;;22.11;47.04
61554;BME280;47425;51.976;5.326;2022-09-27T17:41:19;99626.75;;;22.10;47.33
61554;BME280;47425;51.976;5.326;2022-09-27T17:43:45;99628.59;;;22.09;46.96
61554;BME280;47425;51.976;5.326;2022-09-27T17:46:21;99623.63;;;22.05;47.13
61554;BME280;47425;51.976;5.326;2022-09-27T17:49:08;99629.69;;;22.07;46.82
61554;BME280;47425;51.976;5.326;2022-09-27T17:51:52;99614.09;;;22.02;46.91
61554;BME280;47425;51.976;5.326;2022-09-27T17:54:20;99620.16;;;22.04;46.81
61554;BME280;47425;51.976;5.326;2022-09-27T17:56:48;99617.47;;;22.04;46.97
61554;BME280;47425;51.976;5.326;2022-09-27T17:59:17;99612.97;;;22.05;47.18
61554;BME280;47425;51.976;5.326;2022-09-27T18:01:45;99620.97;;;22.05;47.00
61554;BME280;47425;51.976;5.326;2022-09-27T18:04:12;99620.03;;;22.16;46.63
61554;BME280;47425;51.976;5.326;2022-09-27T18:06:42;99611.72;;;22.09;46.78
61554;BME280;47425;51.976;5.326;2022-09-27T18:09:10;99603.03;;;22.07;46.93
61554;BME280;47425;51.976;5.326;2022-09-27T18:11:36;99605.97;;;22.04;46.89
61554;BME280;47425;51.976;5.326;2022-09-27T18:14:02;99608.66;;;22.04;46.77
61554;BME280;47425;51.976;5.326;2022-09-27T18:16:48;99603.19;;;22.05;46.80
61554;BME280;47425;51.976;5.326;2022-09-27T18:19:15;99600.06;;;22.00;46.62
61554;BME280;47425;51.976;5.326;2022-09-27T18:21:42;99598.97;;;22.03;46.88
61554;BME280;47425;51.976;5.326;2022-09-27T18:24:07;99598.81;;;22.04;47.00
61554;BME280;47425;51.976;5.326;2022-09-27T18:26:34;99601.63;;;22.03;46.61
61554;BME280;47425;51.976;5.326;2022-09-27T18:29:09;99598.97;;;22.03;46.55
61554;BME280;47425;51.976;5.326;2022-09-27T18:31:35;99610.44;;;22.03;46.79
61554;BME280;47425;51.976;5.326;2022-09-27T18:34:02;99614.94;;;22.03;46.87
61554;BME280;47425;51.976;5.326;2022-09-27T18:36:28;99611.31;;;22.04;46.68
61554;BME280;47425;51.976;5.326;2022-09-27T18:38:56;99616.91;;;22.01;46.91
61554;BME280;47425;51.976;5.326;2022-09-27T18:41:22;99614.00;;;22.13;46.49
61554;BME280;47425;51.976;5.326;2022-09-27T18:43:55;99606.66;;;22.06;46.79
61554;BME280;47425;51.976;5.326;2022-09-27T18:46:25;99600.66;;;22.04;46.68
61554;BME280;47425;51.976;5.326;2022-09-27T18:48:50;99607.66;;;22.05;46.39
61554;BME280;47425;51.976;5.326;2022-09-27T18:51:19;99611.31;;;22.04;46.62
61554;BME280;47425;51.976;5.326;2022-09-27T18:53:46;99615.66;;;22.05;46.44
61554;BME280;47425;51.976;5.326;2022-09-27T18:56:15;99606.09;;;22.02;46.42
61554;BME280;47425;51.976;5.326;2022-09-27T18:58:42;99606.94;;;22.03;46.72
61554;BME280;47425;51.976;5.326;2022-09-27T19:01:11;99605.13;;;22.03;46.40
61554;BME280;47425;51.976;5.326;2022-09-27T19:03:37;99602.47;;;22.03;46.67
61554;BME280;47425;51.976;5.326;2022-09-27T19:06:05;99597.97;;;22.04;46.45
61554;BME280;47425;51.976;5.326;2022-09-27T19:08:31;99609.47;;;22.04;46.16
61554;BME280;47425;51.976;5.326;2022-09-27T19:11:18;99601.63;;;22.03;46.54
61554;BME280;47425;51.976;5.326;2022-09-27T19:13:44;99596.44;;;22.01;46.46
61554;BME280;47425;51.976;5.326;2022-09-27T19:16:10;99593.75;;;22.01;46.41
61554;BME280;47425;51.976;5.326;2022-09-27T19:18:37;99584.91;;;22.01;46.58
61554;BME280;47425;51.976;5.326;2022-09-27T19:21:09;99597.41;;;22.00;46.34
61554;BME280;47425;51.976;5.326;2022-09-27T19:23:37;99580.56;;;22.00;46.53
61554;BME280;47425;51.976;5.326;2022-09-27T19:26:04;99586.75;;;22.00;46.39
61554;BME280;47425;51.976;5.326;2022-09-27T19:28:35;99585.91;;;22.00;46.44
61554;BME280;47425;51.976;5.326;2022-09-27T19:31:08;99586.03;;;21.98;46.29
61554;BME280;47425;51.976;5.326;2022-09-27T19:33:35;99582.38;;;21.99;46.21
61554;BME280;47425;51.976;5.326;2022-09-27T19:36:06;99579.03;;;21.97;46.16
61554;BME280;47425;51.976;5.326;2022-09-27T19:38:34;99592.34;;;21.97;45.77
61554;BME280;47425;51.976;5.326;2022-09-27T19:41:01;99591.53;;;22.06;45.66
61554;BME280;47425;51.976;5.326;2022-09-27T19:43:26;99594.16;;;21.96;45.53
61554;BME280;47425;51.976;5.326;2022-09-27T19:45:52;99591.03;;;21.91;45.40
61554;BME280;47425;51.976;5.326;2022-09-27T19:48:19;99585.31;;;21.86;45.81
61554;BME280;47425;51.976;5.326;2022-09-27T19:50:54;99584.00;;;21.81;45.84
61554;BME280;47425;51.976;5.326;2022-09-27T19:53:20;99595.38;;;21.83;45.65
61554;BME280;47425;51.976;5.326;2022-09-27T19:55:45;99589.31;;;21.81;45.81
61554;BME280;47425;51.976;5.326;2022-09-27T19:58:12;99587.09;;;21.76;45.44
61554;BME280;47425;51.976;5.326;2022-09-27T20:00:37;99590.56;;;21.76;45.43
61554;BME280;47425;51.976;5.326;2022-09-27T20:03:02;99579.38;;;21.73;45.39
61554;BME280;47425;51.976;5.326;2022-09-27T20:05:29;99585.53;;;21.73;45.51
61554;BME280;47425;51.976;5.326;2022-09-27T20:07:54;99581.16;;;21.72;45.71
61554;BME280;47425;51.976;5.326;2022-09-27T20:10:20;99577.66;;;21.72;45.24
61554;BME280;47425;51.976;5.326;2022-09-27T20:12:45;99577.09;;;21.68;45.62
61554;BME280;47425;51.976;5.326;2022-09-27T20:15:14;99574.25;;;21.60;45.24
61554;BME280;47425;51.976;5.326;2022-09-27T20:17:41;99581.72;;;21.66;45.53
61554;BME280;47425;51.976;5.326;2022-09-27T20:20:07;99577.38;;;21.65;45.61
61554;BME280;47425;51.976;5.326;2022-09-27T20:22:33;99574.84;;;21.64;45.26
61554;BME280;47425;51.976;5.326;2022-09-27T20:24:59;99578.47;;;21.62;45.39
61554;BME280;47425;51.976;5.326;2022-09-27T20:27:24;99566.25;;;21.60;45.51
61554;BME280;47425;51.976;5.326;2022-09-27T20:29:50;99561.91;;;21.59;45.67
61554;BME280;47425;51.976;5.326;2022-09-27T20:32:16;99562.88;;;21.58;45.21
61554;BME280;47425;51.976;5.326;2022-09-27T20:34:42;99561.34;;;21.55;45.47
61554;BME280;47425;51.976;5.326;2022-09-27T20:37:07;99563.88;;;21.57;45.15
61554;BME280;47425;51.976;5.326;2022-09-27T20:39:34;99561.34;;;21.55;45.68
61554;BME280;47425;51.976;5.326;2022-09-27T20:41:59;99561.44;;;21.54;45.63
61554;BME280;47425;51.976;5.326;2022-09-27T20:44:25;99560.63;;;21.53;45.61
61554;BME280;47425;51.976;5.326;2022-09-27T20:46:51;99566.06;;;21.52;45.37
61554;BME280;47425;51.976;5.326;2022-09-27T20:49:18;99559.88;;;21.51;45.49
61554;BME280;47425;51.976;5.326;2022-09-27T20:51:44;99564.34;;;21.51;45.56
61554;BME280;47425;51.976;5.326;2022-09-27T20:54:12;99561.84;;;21.49;45.25
61554;BME280;47425;51.976;5.326;2022-09-27T20:56:46;99561.97;;;21.48;45.44
61554;BME280;47425;51.976;5.326;2022-09-27T20:59:15;99550.72;;;21.44;45.33
61554;BME280;47425;51.976;5.326;2022-09-27T21:01:41;99553.91;;;21.59;45.13
61554;BME280;47425;51.976;5.326;2022-09-27T21:04:08;99553.84;;;21.49;45.15
61554;BME280;47425;51.976;5.326;2022-09-27T21:06:35;99559.44;;;21.46;45.33
61554;BME280;47425;51.976;5.326;2022-09-27T21:09:03;99553.53;;;21.42;45.24
61554;BME280;47425;51.976;5.326;2022-09-27T21:11:29;99553.41;;;21.44;45.41
61554;BME280;47425;51.976;5.326;2022-09-27T21:13:54;99549.19;;;21.41;45.74
61554;BME280;47425;51.976;5.326;2022-09-27T21:16:24;99551.25;;;21.38;45.24
61554;BME280;47425;51.976;5.326;2022-09-27T21:18:51;99547.91;;;21.36;45.64
61554;BME280;47425;51.976;5.326;2022-09-27T21:21:17;99557.59;;;21.37;45.64
61554;BME280;47425;51.976;5.326;2022-09-27T21:23:45;99546.94;;;21.37;45.76
61554;BME280;47425;51.976;5.326;2022-09-27T21:26:11;99546.19;;;21.35;45.83
61554;BME280;47425;51.976;5.326;2022-09-27T21:28:45;99544.78;;;21.31;45.61
61554;BME280;47425;51.976;5.326;2022-09-27T21:31:16;99542.25;;;21.29;45.80
61554;BME280;47425;51.976;5.326;2022-09-27T21:33:49;99555.72;;;21.27;45.57
61554;BME280;47425;51.976;5.326;2022-09-27T21:36:16;99543.22;;;21.28;45.79
61554;BME280;47425;51.976;5.326;2022-09-27T21:38:41;99545.19;;;21.26;45.80
61554;BME280;47425;51.976;5.326;2022-09-27T21:41:10;99548.09;;;21.23;45.85
61554;BME280;47425;51.976;5.326;2022-09-27T21:43:38;99549.09;;;21.22;45.52
61554;BME280;47425;51.976;5.326;2022-09-27T21:48:41;99552.00;;;21.19;45.82
61554;BME280;47425;51.976;5.326;2022-09-27T21:51:20;99548.63;;;21.17;45.77
61554;BME280;47425;51.976;5.326;2022-09-27T21:53:55;99551.44;;;21.15;45.89
61554;BME280;47425;51.976;5.326;2022-09-27T21:56:24;99552.28;;;21.16;45.62
61554;BME280;47425;51.976;5.326;2022-09-27T21:58:50;99547.78;;;21.16;45.95
61554;BME280;47425;51.976;5.326;2022-09-27T22:01:23;99552.53;;;21.12;45.51
61554;BME280;47425;51.976;5.326;2022-09-27T22:03:51;99549.88;;;21.12;45.90
61554;BME280;47425;51.976;5.326;2022-09-27T22:06:21;99544.69;;;21.11;45.48
61554;BME280;47425;51.976;5.326;2022-09-27T22:08:48;99543.84;;;21.10;45.65
61554;BME280;47425;51.976;5.326;2022-09-27T22:11:22;99532.50;;;21.08;45.80
61554;BME280;47425;51.976;5.326;2022-09-27T22:13:49;99535.97;;;21.09;45.64
61554;BME280;47425;51.976;5.326;2022-09-27T22:16:20;99535.16;;;21.08;45.69
61554;BME280;47425;51.976;5.326;2022-09-27T22:18:47;99537.91;;;21.07;45.58
61554;BME280;47425;51.976;5.326;2022-09-27T22:21:20;99527.69;;;21.02;46.10
61554;BME280;47425;51.976;5.326;2022-09-27T22:23:51;99531.16;;;21.03;45.60
61554;BME280;47425;51.976;5.326;2022-09-27T22:26:21;99529.59;;;21.00;45.91
61554;BME280;47425;51.976;5.326;2022-09-27T22:28:47;99537.09;;;21.06;45.94
